sensor_id;sensor_type;location;lat;lon;timestamp;temperature;humidity
22838;DHT22;11585;51.450;-0.240;2022-12-18T21:19:13;4.70;99.90
22838;DHT22;11585;51.450;-0.240;2022-12-18T21:21:39;4.70;99.90
22838;DHT22;11585;51.450;-0.240;2022-12-18T21:24:25;5.60;99.90
22838;DHT22;11585;51.450;-0.240;2022-12-18T21:26:53;4.70;99.90
22838;DHT22;11585;51.450;-0.240;2022-12-18T21:29:22;4.70;99.90
22838;DHT22;11585;51.450;-0.240;2022-12-18T21:31:48;5.10;99.90
22838;DHT22;11585;51.450;-0.240;2022-12-18T21:34:19;5.20;99.90
22838;DHT22;11585;51.450;-0.240;2022-12-18T21:36:45;5.60;99.90
22838;DHT22;11585;51.450;-0.240;2022-12-18T21:39:12;4.90;99.90
22838;DHT22;11585;51.450;-0.240;2022-12-18T21:41:38;5.00;99.90
22838;DHT22;11585;51.450;-0.240;2022-12-18T21:44:22;6.20;99.90
22838;DHT22;11585;51.450;-0.240;2022-12-18T21:46:48;5.00;99.90
22838;DHT22;11585;51.450;-0.240;2022-12-18T21:49:16;5.20;99.90
22838;DHT22;11585;51.450;-0.240;2022-12-18T21:51:43;5.20;99.90
22838;DHT22;11585;51.450;-0.240;2022-12-18T21:54:13;5.60;99.90
22838;DHT22;11585;51.450;-0.240;2022-12-18T21:56:49;5.20;99.90
22838;DHT22;11585;51.450;-0.240;2022-12-18T21:59:39;5.20;99.90
22838;DHT22;11585;51.450;-0.240;2022-12-18T22:02:29;5.30;99.90
22838;DHT22;11585;51.450;-0.240;2022-12-18T22:08:22;5.30;99.90
22838;DHT22;11585;51.450;-0.240;2022-12-18T22:10:48;5.40;99.90
22838;DHT22;11585;51.450;-0.240;2022-12-18T22:13:14;5.40;99.90
22838;DHT22;11585;51.450;-0.240;2022-12-18T22:15:57;5.40;99.90
22838;DHT22;11585;51.450;-0.240;2022-12-18T22:18:51;4.60;99.90
22838;DHT22;11585;51.450;-0.240;2022-12-18T22:21:30;5.50;99.90
22838;DHT22;11585;51.450;-0.240;2022-12-18T22:24:31;5.70;99.90
22838;DHT22;11585;51.450;-0.240;2022-12-18T22:27:15;5.60;99.90
22838;DHT22;11585;51.450;-0.240;2022-12-18T22:29:41;5.60;99.90
22838;DHT22;11585;51.450;-0.240;2022-12-18T22:32:28;6.80;99.90
22838;DHT22;11585;51.450;-0.240;2022-12-18T22:35:03;5.70;99.90
22838;DHT22;11585;51.450;-0.240;2022-12-18T22:37:50;5.70;99.90
22838;DHT22;11585;51.450;-0.240;2022-12-18T22:40:55;5.70;99.90
22838;DHT22;11585;51.450;-0.240;2022-12-18T22:43:51;5.80;99.90
22838;DHT22;11585;51.450;-0.240;2022-12-18T22:46:30;5.80;99.90
22838;DHT22;11585;51.450;-0.240;2022-12-18T22:49:20;6.20;99.90
22838;DHT22;11585;51.450;-0.240;2022-12-18T22:51:47;6.90;99.90
22838;DHT22;11585;51.450;-0.240;2022-12-18T22:54:16;6.50;99.90
22838;DHT22;11585;51.450;-0.240;2022-12-18T22:56:45;5.90;99.90
22838;DHT22;11585;51.450;-0.240;2022-12-18T22:59:24;5.90;99.90
22838;DHT22;11585;51.450;-0.240;2022-12-18T23:05:34;6.00;99.90
22838;DHT22;11585;51.450;-0.240;2022-12-18T23:08:00;6.00;99.90
22838;DHT22;11585;51.450;-0.240;2022-12-18T23:10:51;6.00;99.90
22838;DHT22;11585;51.450;-0.240;2022-12-18T23:13:19;5.90;99.90
22838;DHT22;11585;51.450;-0.240;2022-12-18T23:16:15;6.10;99.90
22838;DHT22;11585;51.450;-0.240;2022-12-18T23:18:48;6.40;99.90
22838;DHT22;11585;51.450;-0.240;2022-12-18T23:21:18;7.30;99.90
22838;DHT22;11585;51.450;-0.240;2022-12-18T23:23:44;6.20;99.90
22838;DHT22;11585;51.450;-0.240;2022-12-18T23:26:21;6.30;99.90
22838;DHT22;11585;51.450;-0.240;2022-12-18T23:28:48;6.30;99.90
22838;DHT22;11585;51.450;-0.240;2022-12-18T23:31:19;6.60;99.90
22838;DHT22;11585;51.450;-0.240;2022-12-18T23:33:46;6.30;99.90
22838;DHT22;11585;51.450;-0.240;2022-12-18T23:36:12;6.40;99.90
22838;DHT22;11585;51.450;-0.240;2022-12-18T23:38:38;6.40;99.90
22838;DHT22;11585;51.450;-0.240;2022-12-18T23:41:13;7.20;99.90
22838;DHT22;11585;51.450;-0.240;2022-12-18T23:43:39;6.50;99.90
22838;DHT22;11585;51.450;-0.240;2022-12-18T23:46:20;6.40;99.90
22838;DHT22;11585;51.450;-0.240;2022-12-18T23:48:46;6.50;99.90
22838;DHT22;11585;51.450;-0.240;2022-12-18T23:51:14;6.50;99.90
22838;DHT22;11585;51.450;-0.240;2022-12-18T23:53:41;6.60;99.90
22838;DHT22;11585;51.450;-0.240;2022-12-18T23:59:29;6.70;99.90
